Nearby METAR Reports

 

KMTN - Baltimore/Martin, Maryland, USA
Distance from station: SSE 8mi, 13km
Updated: Mon, 22-Dec-2014 8:50pm EST
Rain, Overcast
Rain, Overcast
 Wind from NNW
Wind: NNW 5 mph , 7 km/h
Temperature: 39°F , 4°C
Wind Chill: 35°F , 2°C
Dew Point: 39°F , 4°C
Humidity: 100%
Barometer: 30.17 inHg , 1021.7 hPa
Summary: Rain
Clouds: Overcast
Visibility: 3 miles , 5 km
Cloud details: Mostly cloudy 1100 ft
Overcast 1500 ft
2014/12/23 01:50 KMTN 230150Z 33004KT 3SM RA BKN011 OVC015 04/04 A3017
KDMH - Baltimore/Dwntwn, Maryland, USA
Distance from station: SW 12mi, 19km
Updated: Mon, 22-Dec-2014 8:54pm EST

 
Temperature: 37°F , 3°C
Dew Point: 36°F , 2°C
Humidity: 93%
Barometer: 30.16 inHg , 1021.3 hPa
2014/12/23 01:54 KDMH 230154Z AUTO 03/02 A3016 RMK AO1 SLP213 P0003 T00280017
 
KBWI - Balto/Wash Intl, Maryland, USA
Distance from station: SSW 20mi, 33km
Updated: Mon, 22-Dec-2014 9:15pm EST
Light drizzle, Mist, Overcast
Light drizzle, Mist, Overcast
 Wind from N
Wind: N 5 mph , 7 km/h
Temperature: 37°F , 3°C
Wind Chill: 33°F , 1°C
Dew Point: 36°F , 2°C
Humidity: 93%
Barometer: 30.12 inHg , 1020 hPa
Summary: Light drizzle, Mist
Clouds: Overcast
Visibility: 2 1/2 miles , 2 km
Cloud details: Few Clouds 700 ft
Overcast 1000 ft
2014/12/23 02:15 KBWI 230215Z 01004KT 2 1/2SM -DZ BR FEW007 OVC010 03/02 A3012 RMK AO2 RAE13DZB13 P0000
KDMW - Carroll Cnty, Maryland, USA
Distance from station: WNW 30mi, 48km
Updated: Mon, 22-Dec-2014 9:40pm EST
Mist, Mostly cloudy
Mist, Mostly cloudy
 Wind from N
Wind: N 3 mph , 6 km/h
Temperature: 32°F , 0°C
Dew Point: 30°F , -1°C
Humidity: 93%
Barometer: 30.11 inHg , 1019.6 hPa
Summary: Mist
Clouds: Mostly cloudy
Visibility: 1 3/4 miles , 5 km
Cloud details: Mostly cloudy 400 ft
2014/12/23 02:40 KDMW 230240Z AUTO 01003KT 1 3/4SM BR BKN004 00/M01 A3011 RMK AO2
 
KNAK - Annapolis/Naval, Maryland, USA
Distance from station: S 30mi, 48km
Updated: Mon, 22-Dec-2014 9:50pm EST
Mist, Overcast
Mist, Overcast
 Wind from N
Wind: N 8 mph , 13 km/h
Temperature: 39°F , 4°C
Wind Chill: 33°F , 1°C
Dew Point: 36°F , 2°C
Humidity: 87%
Barometer: 30.11 inHg , 1019.6 hPa
Summary: Mist
Clouds: Overcast
Visibility: 4 miles , 6 km
Cloud details: Partly cloudy 900 ft
Overcast 1300 ft
2014/12/23 02:50 KNAK 230250Z AUTO 36007KT 4SM BR SCT009 OVC013 04/02 A3011 RMK AO2 RAE0156 P0000
KW29 - Stevensville, Maryland, USA
Distance from station: SSE 31mi, 50km
Updated: Mon, 22-Dec-2014 9:42pm EST
Mist
Mist
 Wind from N
Wind: N 9 mph , 15 km/h
Temperature: 37°F , 3°C
Wind Chill: 30°F , -1°C
Dew Point: 37°F , 3°C
Humidity: 100%
Barometer: 30.11 inHg , 1019.6 hPa
Summary: Mist
Visibility: 3 miles , 5 km
2014/12/23 02:42 KW29 230242Z AUTO 01008KT 3SM BR 03/03 A3011 RMK AO1
 
KCGS - College Park, Maryland, USA
Distance from station: SW 38mi, 61km
Updated: Mon, 22-Dec-2014 9:40pm EST
Overcast
Overcast
 Wind from N
Wind: N 3 mph , 6 km/h
Temperature: 36°F , 2°C
Dew Point: 36°F , 2°C
Humidity: 100%
Barometer: 30.11 inHg , 1019.6 hPa
Clouds: Overcast
Visibility: 4 miles , 6 km
Cloud details: Mostly cloudy 800 ft
Overcast 1200 ft
2014/12/23 02:40 KCGS 230240Z AUTO 01003KT 4SM BKN008 OVC012 02/02 A3011 RMK AO1
KGAI - Gaithersburg, Maryland, USA
Distance from station: WSW 40mi, 65km
Updated: Mon, 22-Dec-2014 9:35pm EST
Overcast
Overcast
 Wind from calm
Wind: Calm
Temperature: 34°F , 1°C
Dew Point: 30°F , -1°C
Humidity: 87%
Barometer: 30.15 inHg , 1021 hPa
Clouds: Overcast
Visibility: 3 miles , 5 km
Cloud details: Mostly cloudy 600 ft
Overcast 1000 ft
2014/12/23 02:35 KGAI 230235Z 00000KT 3SM BKN006 OVC010 01/M01 A3015 RMK AO1
 
KTHV - York, Pennsylvania, USA
Distance from station: NNW 40mi, 65km
Updated: Mon, 22-Dec-2014 9:49pm EST
Light rain, Mist, Overcast
Light rain, Mist, Overcast
 Wind from calm
Wind: Calm
Temperature: 34°F , 1°C
Dew Point: 32°F , 0°C
Humidity: 93%
Barometer: 30.14 inHg , 1020.7 hPa
Summary: Light rain, Mist
Clouds: Overcast
Visibility: 1 1/4 miles , 2 km
Cloud details: Overcast 300 ft
2014/12/23 02:49 KTHV 230249Z AUTO 00000KT 1 1/4SM -RA BR OVC003 01/00 A3014 RMK AO2 P0002
KFDK - Frederick, Maryland, USA
Distance from station: W 47mi, 75km
Updated: Mon, 22-Dec-2014 9:40pm EST
Mist, Overcast
Mist, Overcast
 Wind from N
Wind: N 7 mph , 11 km/h
Temperature: 36°F , 2°C
Wind Chill: 30°F , -1°C
Dew Point: 32°F , 0°C
Humidity: 87%
Barometer: 30.17 inHg , 1021.7 hPa
Summary: Mist
Clouds: Overcast
Visibility: 2 1/2 miles , 2 km
Cloud details: Overcast 400 ft
2014/12/23 02:40 KFDK 230240Z AUTO 01006KT 2 1/2SM BR OVC004 02/00 A3017 RMK AO2
 
KESN - Easton/Newnam, Maryland, USA
Distance from station: SSE 48mi, 78km
Updated: Mon, 22-Dec-2014 9:57pm EST
Light drizzle, Mostly cloudy
Light drizzle, Mostly cloudy
 Wind from NE
Wind: NE 9 mph , 15 km/h
Temperature: 41°F , 5°C
Wind Chill: 35°F , 2°C
Dew Point: 41°F , 5°C
Humidity: 100%
Barometer: 30.13 inHg , 1020.3 hPa
Summary: Light Drizzle
Clouds: Mostly cloudy
Visibility: 4 miles , 6 km
Cloud details: Mostly cloudy 900 ft
Mostly cloudy 4600 ft
2014/12/23 02:57 KESN 230257Z AUTO 05008KT 4SM -DZ BKN009 BKN046 05/05 A3013 RMK AO2 P0001 60001 T00530053
KDCA - Washington/Natl, Washington D.c., USA
Distance from station: SW 49mi, 79km
Updated: Mon, 22-Dec-2014 8:52pm EST
Light drizzle, Overcast
Light drizzle, Overcast
 Wind from N
Wind: N 8 mph , 13 km/h
Temperature: 39°F , 4°C
Wind Chill: 33°F , 1°C
Dew Point: 34°F , 1°C
Humidity: 81%
Barometer: 30.15 inHg , 1021 hPa
Summary: Light Drizzle
Clouds: Overcast
Visibility: 6 miles , 10 km
Cloud details: Mostly cloudy 900 ft
Overcast 1200 ft
2014/12/23 01:52 KDCA 230152Z 36007KT 6SM -DZ BKN009 OVC012 04/01 A3015 RMK AO2 RAE13DZB26 SLP207 P0000 T00390011
 
KLNS - Lancaster, Pennsylvania, USA
Distance from station: N 49mi, 79km
Updated: Mon, 22-Dec-2014 9:34pm EST
Light rain, Mist, Overcast
Light rain, Mist, Overcast
 Wind from ENE
Wind: ENE 6 mph , 9 km/h
Temperature: 37°F , 3°C
Wind Chill: 32°F , 0°C
Dew Point: 36°F , 2°C
Humidity: 93%
Barometer: 30.14 inHg , 1020.7 hPa
Summary: Light rain, Mist
Clouds: Overcast
Visibility: 2 1/2 miles , 2 km
Cloud details: Overcast 1100 ft
2014/12/23 02:34 KLNS 230234Z 06005KT 2 1/2SM -RA BR OVC011 03/02 A3014 RMK AO2 RAE12B28 P0001 T00280017
KILG - Wilmington, Delaware, USA
Distance from station: ENE 50mi, 81km
Updated: Mon, 22-Dec-2014 9:51pm EST
Light rain, Mist, Overcast
Light rain, Mist, Overcast
 Wind from NE
Wind: NE 8 mph , 13 km/h
Temperature: 43°F , 6°C
Wind Chill: 38°F , 3°C
Dew Point: 39°F , 4°C
Humidity: 87%
Barometer: 30.15 inHg , 1021 hPa
Summary: Light rain, Mist
Clouds: Overcast
Visibility: 5 miles , 8 km
Cloud details: Mostly cloudy 1800 ft
Overcast 3800 ft
2014/12/23 02:51 KILG 230251Z 04007KT 5SM -RA BR BKN018 OVC038 06/04 A3015 RMK AO2 SLP210 P0001 60004 T00560039 57013